createdAt,value
2023-01-12T00:02:24.461Z,9.70
2023-01-12T00:04:51.061Z,9.70
2023-01-12T00:07:18.119Z,9.70
2023-01-12T00:09:44.841Z,9.70
2023-01-12T00:12:11.841Z,9.70
2023-01-12T00:14:38.880Z,9.70
2023-01-12T00:17:06.277Z,9.70
2023-01-12T00:19:33.747Z,9.70
2023-01-12T00:22:13.313Z,9.70
2023-01-12T00:24:41.228Z,9.70
2023-01-12T00:27:09.304Z,9.70
2023-01-12T00:29:36.224Z,9.70
2023-01-12T00:32:03.600Z,9.70
2023-01-12T00:34:30.164Z,9.70
2023-01-12T00:36:57.256Z,9.70
2023-01-12T00:39:23.836Z,9.70
2023-01-12T00:42:08.730Z,9.70
2023-01-12T00:44:53.793Z,9.70
2023-01-12T00:47:20.480Z,9.70
2023-01-12T00:49:47.250Z,9.60
2023-01-12T00:52:24.948Z,9.70
2023-01-12T00:54:56.258Z,9.60
2023-01-12T00:57:22.792Z,9.70
2023-01-12T00:59:49.323Z,9.70
2023-01-12T01:02:15.991Z,9.70
2023-01-12T01:04:42.657Z,9.70
2023-01-12T01:07:09.161Z,9.60
2023-01-12T01:09:35.839Z,9.60
2023-01-12T01:12:02.427Z,9.70
2023-01-12T01:14:29.028Z,9.70
2023-01-12T01:16:55.572Z,9.70
2023-01-12T01:19:22.182Z,9.70
2023-01-12T01:21:48.679Z,9.70
2023-01-12T01:24:15.290Z,9.70
2023-01-12T01:26:42.157Z,9.70
2023-01-12T01:29:09.306Z,9.60
2023-01-12T01:31:36.168Z,9.60
2023-01-12T01:34:02.971Z,9.60
2023-01-12T01:36:29.566Z,9.60
2023-01-12T01:38:56.127Z,9.60
2023-01-12T01:41:30.057Z,9.60
2023-01-12T01:43:56.723Z,9.60
2023-01-12T01:46:38.350Z,9.60
2023-01-12T01:49:13.034Z,9.60
2023-01-12T01:51:39.642Z,9.50
2023-01-12T01:54:06.223Z,9.60
2023-01-12T01:56:33.562Z,9.60
2023-01-12T01:59:02.981Z,9.60
2023-01-12T02:01:29.732Z,9.60
2023-01-12T02:03:56.376Z,9.60
2023-01-12T02:06:25.779Z,9.50
2023-01-12T02:09:00.271Z,9.50
2023-01-12T02:11:45.591Z,9.60
2023-01-12T02:14:31.341Z,9.60
2023-01-12T02:17:09.455Z,9.50
2023-01-12T02:19:55.692Z,9.60
2023-01-12T02:22:22.167Z,9.60
2023-01-12T02:24:48.845Z,9.60
2023-01-12T02:27:26.366Z,9.60
2023-01-12T02:29:52.824Z,9.70
2023-01-12T02:32:40.452Z,9.70
2023-01-12T02:35:24.724Z,9.70
2023-01-12T02:37:58.689Z,9.70
2023-01-12T02:40:40.464Z,9.60
2023-01-12T02:43:12.799Z,9.70
2023-01-12T02:45:39.748Z,9.70
2023-01-12T02:48:12.262Z,9.60
2023-01-12T02:50:44.923Z,9.60
2023-01-12T02:53:30.863Z,9.60
2023-01-12T02:55:59.863Z,9.60
2023-01-12T02:58:26.878Z,9.60
2023-01-12T03:00:55.262Z,9.60
2023-01-12T03:03:22.492Z,9.70
2023-01-12T03:05:49.142Z,9.60
2023-01-12T03:08:18.033Z,9.60
2023-01-12T03:10:51.374Z,9.60
2023-01-12T03:13:18.153Z,9.60
2023-01-12T03:15:47.279Z,9.60
2023-01-12T03:18:28.514Z,9.60
2023-01-12T03:20:57.438Z,9.60
2023-01-12T03:23:26.182Z,9.60
2023-01-12T03:25:54.952Z,9.60
2023-01-12T03:28:24.095Z,9.70
2023-01-12T03:31:00.128Z,9.70
2023-01-12T03:33:26.929Z,9.70
2023-01-12T03:36:05.939Z,9.70
2023-01-12T03:38:47.853Z,9.70
2023-01-12T03:41:34.640Z,9.70
2023-01-12T03:44:03.563Z,9.60
2023-01-12T03:46:41.920Z,9.70
2023-01-12T03:49:13.467Z,9.70
2023-01-12T03:51:42.450Z,9.70
2023-01-12T03:54:10.076Z,9.70
2023-01-12T03:56:37.955Z,9.70
2023-01-12T03:59:05.096Z,9.70
2023-01-12T04:01:31.890Z,9.60
2023-01-12T04:03:58.409Z,9.70
2023-01-12T04:06:25.011Z,9.60
2023-01-12T04:08:51.513Z,9.60
2023-01-12T04:11:36.930Z,9.60
2023-01-12T04:14:03.504Z,9.60
2023-01-12T04:16:30.272Z,9.60
2023-01-12T04:18:56.865Z,9.60
2023-01-12T04:21:30.182Z,9.60
2023-01-12T04:23:56.772Z,9.60
2023-01-12T04:26:23.567Z,9.60
2023-01-12T04:28:50.120Z,9.60
2023-01-12T04:31:16.734Z,9.60
2023-01-12T04:33:43.463Z,9.60
2023-01-12T04:36:11.385Z,9.60
2023-01-12T04:38:38.248Z,9.60
2023-01-12T04:41:05.407Z,9.60
2023-01-12T04:43:31.983Z,9.60
2023-01-12T04:45:58.661Z,9.60
2023-01-12T04:48:25.374Z,9.60
2023-01-12T04:50:51.942Z,9.60
2023-01-12T04:53:18.667Z,9.60
2023-01-12T04:55:45.230Z,9.60
2023-01-12T04:58:11.804Z,9.50
2023-01-12T05:00:38.384Z,9.50
2023-01-12T05:03:04.921Z,9.50
2023-01-12T05:05:32.305Z,9.50
2023-01-12T05:08:18.310Z,9.60
2023-01-12T05:10:49.432Z,9.60
2023-01-12T05:13:16.026Z,9.60
2023-01-12T05:15:42.582Z,9.50
2023-01-12T05:18:09.064Z,9.40
2023-01-12T05:20:35.559Z,9.40
2023-01-12T05:23:02.169Z,9.30
2023-01-12T05:25:29.452Z,9.30
2023-01-12T05:27:58.026Z,9.40
2023-01-12T05:30:25.161Z,9.30
2023-01-12T05:32:51.770Z,9.30
2023-01-12T05:35:18.566Z,9.40
2023-01-12T05:37:45.271Z,9.40
2023-01-12T05:40:12.108Z,9.40
2023-01-12T05:42:57.371Z,9.40
2023-01-12T05:45:23.951Z,9.40
2023-01-12T05:48:01.788Z,9.30
2023-01-12T05:50:28.566Z,9.20
2023-01-12T05:52:55.668Z,9.20
2023-01-12T05:55:22.269Z,9.10
2023-01-12T05:57:51.480Z,9.00
2023-01-12T06:00:18.634Z,9.00
2023-01-12T06:02:45.250Z,9.00
2023-01-12T06:05:11.811Z,8.90
2023-01-12T06:07:38.408Z,8.90
2023-01-12T06:10:05.605Z,8.80
2023-01-12T06:12:50.808Z,8.70
2023-01-12T06:15:17.396Z,8.70
2023-01-12T06:17:43.986Z,8.70
2023-01-12T06:20:14.765Z,8.60
2023-01-12T06:22:41.382Z,8.60
2023-01-12T06:25:08.223Z,8.70
2023-01-12T06:27:35.939Z,8.70
2023-01-12T06:30:02.489Z,8.70
2023-01-12T06:32:29.176Z,8.70
2023-01-12T06:35:01.676Z,8.80
2023-01-12T06:37:33.556Z,8.80
2023-01-12T06:40:00.126Z,8.70
2023-01-12T06:42:29.462Z,8.80
2023-01-12T06:44:56.278Z,8.90
2023-01-12T06:47:22.916Z,8.90
2023-01-12T06:49:51.591Z,9.00
2023-01-12T06:52:21.922Z,9.00
2023-01-12T06:54:48.491Z,9.00
2023-01-12T06:57:15.123Z,9.00
2023-01-12T06:59:44.632Z,9.00
2023-01-12T07:02:15.799Z,9.10
2023-01-12T07:04:42.432Z,9.10
2023-01-12T07:07:09.684Z,9.10
2023-01-12T07:09:36.246Z,9.20
2023-01-12T07:12:03.686Z,9.20
2023-01-12T07:14:30.416Z,9.10
2023-01-12T07:16:57.008Z,9.10
2023-01-12T07:19:23.647Z,9.00
2023-01-12T07:24:15.693Z,9.00
2023-01-12T07:26:42.284Z,9.00
2023-01-12T07:29:10.128Z,9.00
2023-01-12T07:31:36.990Z,8.90
2023-01-12T07:34:03.630Z,8.90
2023-01-12T07:36:30.604Z,8.90
2023-01-12T07:38:57.151Z,8.90
2023-01-12T07:41:42.426Z,8.90
2023-01-12T07:44:09.142Z,8.80
2023-01-12T07:46:35.812Z,8.90
2023-01-12T07:49:02.468Z,8.90
2023-01-12T07:51:30.065Z,8.90
2023-01-12T07:53:56.642Z,9.00
2023-01-12T07:56:23.138Z,9.10
2023-01-12T07:58:50.047Z,9.20
2023-01-12T08:01:16.788Z,9.20
2023-01-12T08:03:43.427Z,9.20
2023-01-12T08:06:10.043Z,9.20
2023-01-12T08:08:36.569Z,9.10
2023-01-12T08:11:04.389Z,9.20
2023-01-12T08:13:31.105Z,9.30
2023-01-12T08:15:58.268Z,9.40
2023-01-12T08:18:31.008Z,9.40
2023-01-12T08:20:59.089Z,9.40
2023-01-12T08:23:29.813Z,9.50
2023-01-12T08:25:59.219Z,9.60
2023-01-12T08:28:31.450Z,9.60
2023-01-12T08:30:58.021Z,9.50
2023-01-12T08:33:25.731Z,9.60
2023-01-12T08:35:52.448Z,9.50
2023-01-12T08:38:19.426Z,9.60
2023-01-12T08:41:04.794Z,9.60
2023-01-12T08:43:49.865Z,9.70
2023-01-12T08:46:16.438Z,9.60
2023-01-12T08:48:42.997Z,9.70
2023-01-12T08:51:11.339Z,9.80
2023-01-12T08:53:37.934Z,9.70
2023-01-12T08:56:04.537Z,9.80
2023-01-12T08:58:31.185Z,9.80
2023-01-12T09:00:57.799Z,9.80
2023-01-12T09:03:24.486Z,9.80
2023-01-12T09:05:51.058Z,9.80
2023-01-12T09:08:17.564Z,9.90
2023-01-12T09:10:44.150Z,10.00
2023-01-12T09:13:15.527Z,10.00
2023-01-12T09:15:48.214Z,10.00
2023-01-12T09:18:20.243Z,10.00
2023-01-12T09:20:46.962Z,10.20
2023-01-12T09:23:13.474Z,10.20
2023-01-12T09:25:40.157Z,10.30
2023-01-12T09:28:06.710Z,10.30
2023-01-12T09:30:33.250Z,10.30
2023-01-12T09:32:59.883Z,10.20
2023-01-12T09:35:26.378Z,10.20
2023-01-12T09:37:53.649Z,10.20
2023-01-12T09:40:20.283Z,10.20
2023-01-12T09:43:09.354Z,10.30
2023-01-12T09:45:54.425Z,10.20
2023-01-12T09:48:23.274Z,10.20
2023-01-12T09:50:57.221Z,10.20
2023-01-12T09:53:28.545Z,10.10
2023-01-12T09:56:02.613Z,10.10
2023-01-12T09:58:47.935Z,10.20
2023-01-12T10:01:28.315Z,10.20
2023-01-12T10:03:56.026Z,10.40
2023-01-12T10:06:22.678Z,10.30
2023-01-12T10:08:50.751Z,10.30
2023-01-12T10:11:21.392Z,10.30
2023-01-12T10:13:53.496Z,10.20
2023-01-12T10:16:32.915Z,10.30
2023-01-12T10:19:00.840Z,10.30
2023-01-12T10:21:28.789Z,10.40
2023-01-12T10:23:56.078Z,10.40
2023-01-12T10:26:23.694Z,10.40
2023-01-12T10:28:52.590Z,10.50
2023-01-12T10:31:20.845Z,10.50
2023-01-12T10:34:07.844Z,10.60
2023-01-12T10:36:35.308Z,10.70
2023-01-12T10:39:03.731Z,10.70
2023-01-12T10:41:31.464Z,10.80
2023-01-12T10:43:58.040Z,10.90
2023-01-12T10:46:26.901Z,11.00
2023-01-12T10:48:56.339Z,11.00
2023-01-12T10:51:30.141Z,11.00
2023-01-12T10:53:58.799Z,11.10
2023-01-12T10:56:28.673Z,11.20
2023-01-12T10:58:59.402Z,11.20
2023-01-12T11:01:26.128Z,11.30
2023-01-12T11:04:03.649Z,11.30
2023-01-12T11:06:31.570Z,11.40
2023-01-12T11:08:58.307Z,11.40
2023-01-12T11:11:27.842Z,11.40
2023-01-12T11:13:55.412Z,11.50
2023-01-12T11:16:23.174Z,11.50
2023-01-12T11:18:58.989Z,11.50
2023-01-12T11:21:27.983Z,11.70
2023-01-12T11:23:57.588Z,11.70
2023-01-12T11:26:28.662Z,11.70
2023-01-12T11:28:57.868Z,11.80
2023-01-12T11:31:27.437Z,11.80
2023-01-12T11:33:57.085Z,11.80
2023-01-12T11:36:40.546Z,11.90
2023-01-12T11:39:10.079Z,11.80
2023-01-12T11:42:10.473Z,11.90
2023-01-12T11:44:40.362Z,11.90
2023-01-12T11:47:13.878Z,11.90
2023-01-12T11:49:50.395Z,11.90
2023-01-12T11:57:43.012Z,11.90
2023-01-12T12:00:31.143Z,11.90
2023-01-12T12:03:16.782Z,11.90
2023-01-12T12:05:51.471Z,11.90
2023-01-12T12:08:24.172Z,11.80
2023-01-12T12:10:59.668Z,11.80
2023-01-12T12:13:28.765Z,11.80
2023-01-12T12:16:16.136Z,11.90
2023-01-12T12:18:58.089Z,11.90
2023-01-12T12:21:43.107Z,11.90
2023-01-12T12:24:28.546Z,11.90
2023-01-12T12:27:04.215Z,11.90
2023-01-12T12:29:49.696Z,11.80
2023-01-12T12:32:25.560Z,11.70
2023-01-12T12:35:10.488Z,11.60
2023-01-12T12:37:43.032Z,11.60
2023-01-12T12:40:12.750Z,11.60
2023-01-12T12:43:16.476Z,11.70
2023-01-12T12:45:47.696Z,11.80
2023-01-12T12:48:17.241Z,11.80
2023-01-12T12:50:55.357Z,11.70
2023-01-12T12:54:18.217Z,11.70
2023-01-12T12:56:59.068Z,11.50
2023-01-12T12:59:41.512Z,11.30
2023-01-12T13:02:39.797Z,11.20
2023-01-12T13:12:02.701Z,11.00
2023-01-12T13:14:57.018Z,10.80
2023-01-12T13:18:11.256Z,10.70
2023-01-12T13:20:40.106Z,10.70
2023-01-12T13:23:43.609Z,10.70
2023-01-12T13:26:48.524Z,10.70
2023-01-12T13:33:13.990Z,10.90
2023-01-12T13:35:55.975Z,10.90
2023-01-12T13:38:55.865Z,11.00
2023-01-12T13:41:48.785Z,11.10
2023-01-12T13:44:45.323Z,11.20
2023-01-12T13:50:38.097Z,11.30
2023-01-12T13:55:54.932Z,11.50
2023-01-12T13:58:21.488Z,11.50
2023-01-12T14:00:59.540Z,11.50
2023-01-12T14:03:39.641Z,11.50
2023-01-12T14:06:21.139Z,11.50
2023-01-12T14:08:55.669Z,11.60
2023-01-12T14:11:31.862Z,11.60
2023-01-12T14:14:41.890Z,11.60
2023-01-12T14:17:31.446Z,11.70
2023-01-12T14:19:57.968Z,11.60
2023-01-12T14:22:24.523Z,11.60
2023-01-12T14:24:51.053Z,11.70
2023-01-12T14:27:25.526Z,11.60
2023-01-12T14:29:53.282Z,11.60
2023-01-12T14:32:20.897Z,11.70
2023-01-12T14:34:52.857Z,11.70
2023-01-12T14:37:27.704Z,11.60
2023-01-12T14:39:54.831Z,11.70
2023-01-12T14:42:39.742Z,11.80
2023-01-12T14:45:37.016Z,11.80
2023-01-12T14:48:19.581Z,11.80
2023-01-12T14:51:17.773Z,11.80
2023-01-12T14:53:45.332Z,11.80
2023-01-12T14:56:20.388Z,11.90
2023-01-12T14:58:47.634Z,11.90
2023-01-12T15:01:27.499Z,11.90
2023-01-12T15:03:54.702Z,11.90
2023-01-12T15:06:22.034Z,11.90
2023-01-12T15:08:53.011Z,11.90
2023-01-12T15:11:28.678Z,12.00
2023-01-12T15:13:57.081Z,11.90
2023-01-12T15:16:42.497Z,11.90
2023-01-12T15:19:28.098Z,11.90
2023-01-12T15:22:13.441Z,11.90
2023-01-12T15:24:59.402Z,11.80
2023-01-12T15:27:25.980Z,11.80
2023-01-12T15:29:52.646Z,11.80
2023-01-12T15:32:29.671Z,11.80
2023-01-12T15:34:59.137Z,11.70
2023-01-12T15:37:25.748Z,11.80
2023-01-12T15:39:52.386Z,11.80
2023-01-12T15:42:21.977Z,11.80
2023-01-12T15:44:49.672Z,11.80
2023-01-12T15:47:17.074Z,11.80
2023-01-12T15:49:47.621Z,11.70
2023-01-12T15:52:16.032Z,11.70
2023-01-12T15:54:43.113Z,11.70
2023-01-12T15:57:13.099Z,11.70
2023-01-12T15:59:40.056Z,11.70
2023-01-12T16:02:18.975Z,11.70
2023-01-12T16:04:45.644Z,11.70
2023-01-12T16:07:12.178Z,11.60
2023-01-12T16:09:41.017Z,11.60
2023-01-12T16:12:08.353Z,11.60
2023-01-12T16:14:35.006Z,11.50
2023-01-12T16:17:01.520Z,11.50
2023-01-12T16:19:28.348Z,11.50
2023-01-12T16:21:54.968Z,11.40
2023-01-12T16:24:21.745Z,11.40
2023-01-12T16:26:48.514Z,11.40
2023-01-12T16:29:15.625Z,11.30
2023-01-12T16:31:42.327Z,11.30
2023-01-12T16:34:09.427Z,11.30
2023-01-12T16:36:37.231Z,11.30
2023-01-12T16:39:04.352Z,11.30
2023-01-12T16:41:31.115Z,11.30
2023-01-12T16:43:58.515Z,11.30
2023-01-12T16:46:25.398Z,11.30
2023-01-12T16:48:55.387Z,11.30
2023-01-12T16:51:22.607Z,11.30
2023-01-12T16:53:51.478Z,11.30
2023-01-12T16:56:18.306Z,11.30
2023-01-12T16:58:48.538Z,11.30
2023-01-12T17:01:17.464Z,11.30
2023-01-12T17:03:44.769Z,11.30
2023-01-12T17:06:12.778Z,11.20
2023-01-12T17:08:39.589Z,11.20
2023-01-12T17:11:10.491Z,11.30
2023-01-12T17:13:37.436Z,11.20
2023-01-12T17:16:06.920Z,11.20
2023-01-12T17:18:33.986Z,11.20
2023-01-12T17:21:01.462Z,11.20
2023-01-12T17:26:06.040Z,11.20
2023-01-12T17:28:35.093Z,11.20
2023-01-12T17:31:09.200Z,11.20
2023-01-12T17:33:36.255Z,11.20
2023-01-12T17:36:07.023Z,11.20
2023-01-12T17:38:34.397Z,11.30
2023-01-12T17:41:06.745Z,11.30
2023-01-12T17:43:34.304Z,11.30
2023-01-12T17:46:02.233Z,11.30
2023-01-12T17:48:29.230Z,11.30
2023-01-12T17:50:56.014Z,11.30
2023-01-12T17:53:22.931Z,11.30
2023-01-12T17:55:51.640Z,11.20
2023-01-12T17:58:19.153Z,11.30
2023-01-12T18:00:45.985Z,11.20
2023-01-12T18:03:12.886Z,11.20
2023-01-12T18:05:44.568Z,11.30
2023-01-12T18:08:12.236Z,11.30
2023-01-12T18:10:38.951Z,11.30
2023-01-12T18:13:05.776Z,11.20
2023-01-12T18:15:32.520Z,11.20
2023-01-12T18:17:59.308Z,11.20
2023-01-12T18:20:26.060Z,11.30
2023-01-12T18:22:55.201Z,11.30
2023-01-12T18:25:22.036Z,11.30
2023-01-12T18:27:48.673Z,11.30
2023-01-12T18:30:15.360Z,11.40
2023-01-12T18:32:41.967Z,11.40
2023-01-12T18:35:08.866Z,11.40
2023-01-12T18:37:35.582Z,11.40
2023-01-12T18:40:02.466Z,11.40
2023-01-12T18:42:47.676Z,11.40
2023-01-12T18:45:14.456Z,11.40
2023-01-12T18:47:59.374Z,11.40
2023-01-12T18:50:44.508Z,11.40
2023-01-12T18:53:23.771Z,11.40
2023-01-12T18:55:56.951Z,11.40
2023-01-12T18:58:28.431Z,11.30
2023-01-12T19:00:58.372Z,11.20
2023-01-12T19:03:25.391Z,11.20
2023-01-12T19:06:10.147Z,11.20
2023-01-12T19:08:55.416Z,11.20
2023-01-12T19:11:22.253Z,11.30
2023-01-12T19:14:07.228Z,11.30
2023-01-12T19:16:52.578Z,11.30
2023-01-12T19:19:23.885Z,11.20
2023-01-12T19:22:08.951Z,11.20
2023-01-12T19:24:54.282Z,11.20
2023-01-12T19:27:42.790Z,11.20
2023-01-12T19:30:10.204Z,11.20
2023-01-12T19:32:36.972Z,11.30
2023-01-12T19:35:10.981Z,11.30
2023-01-12T19:37:38.984Z,11.30
2023-01-12T19:40:24.915Z,11.40
2023-01-12T19:43:17.542Z,11.50
2023-01-12T19:45:45.535Z,11.50
2023-01-12T19:48:13.345Z,11.50
2023-01-12T19:50:40.567Z,11.60
2023-01-12T19:53:09.535Z,11.60
2023-01-12T19:55:36.401Z,11.70
2023-01-12T19:58:08.378Z,11.70
2023-01-12T20:00:36.359Z,11.70
2023-01-12T20:03:03.115Z,11.70
2023-01-12T20:05:30.005Z,11.70
2023-01-12T20:07:57.025Z,11.70
2023-01-12T20:10:23.884Z,11.70
2023-01-12T20:12:55.079Z,11.70
2023-01-12T20:15:21.929Z,11.70
2023-01-12T20:17:49.278Z,11.70
2023-01-12T20:20:16.454Z,11.70
2023-01-12T20:22:43.406Z,11.80
2023-01-12T20:25:10.451Z,11.80
2023-01-12T20:27:38.141Z,11.70
2023-01-12T20:30:06.046Z,11.70
2023-01-12T20:32:34.904Z,11.60
2023-01-12T20:35:05.041Z,11.60
2023-01-12T20:37:34.916Z,11.50
2023-01-12T20:40:02.528Z,11.60
2023-01-12T20:42:31.727Z,11.70
2023-01-12T20:44:59.067Z,11.70
2023-01-12T20:47:29.967Z,11.70
2023-01-12T20:49:56.838Z,11.60
2023-01-12T20:52:24.769Z,11.60
2023-01-12T20:54:51.820Z,11.60
2023-01-12T20:57:18.938Z,11.60
2023-01-12T20:59:45.773Z,11.50
2023-01-12T21:02:19.409Z,11.40
2023-01-12T21:04:46.263Z,11.40
2023-01-12T21:07:13.191Z,11.40
2023-01-12T21:09:39.933Z,11.40
2023-01-12T21:12:07.112Z,11.50
2023-01-12T21:14:34.534Z,11.50
2023-01-12T21:17:02.322Z,11.40
2023-01-12T21:19:29.240Z,11.50
2023-01-12T21:21:55.941Z,11.50
2023-01-12T21:24:23.427Z,11.50
2023-01-12T21:26:50.282Z,11.50
2023-01-12T21:29:17.147Z,11.50
2023-01-12T21:31:43.902Z,11.50
2023-01-12T21:34:10.725Z,11.40
2023-01-12T21:36:37.471Z,11.50
2023-01-12T21:39:04.442Z,11.50
2023-01-12T21:41:51.061Z,11.50
2023-01-12T21:44:17.881Z,11.50
2023-01-12T21:46:44.591Z,11.50
2023-01-12T21:49:11.337Z,11.40
2023-01-12T21:51:38.059Z,11.30
2023-01-12T21:54:04.800Z,11.20
2023-01-12T21:56:31.623Z,11.20
2023-01-12T21:58:58.411Z,11.10
2023-01-12T22:01:25.263Z,11.20
2023-01-12T22:03:52.132Z,11.20
2023-01-12T22:06:18.929Z,11.30
2023-01-12T22:08:45.665Z,11.30
2023-01-12T22:11:13.378Z,11.20
2023-01-12T22:13:40.707Z,11.20
2023-01-12T22:16:11.729Z,11.20
2023-01-12T22:18:39.455Z,11.30
2023-01-12T22:21:07.966Z,11.20
2023-01-12T22:23:36.090Z,11.20
2023-01-12T22:26:09.344Z,11.20
2023-01-12T22:28:36.703Z,11.20
2023-01-12T22:31:22.231Z,11.10
2023-01-12T22:34:00.646Z,11.10
2023-01-12T22:36:27.514Z,11.10
2023-01-12T22:38:54.715Z,11.00
2023-01-12T22:41:22.588Z,11.10
2023-01-12T22:43:49.571Z,11.10
2023-01-12T22:46:18.541Z,11.10
2023-01-12T22:48:48.207Z,11.10
2023-01-12T22:51:15.033Z,11.10
2023-01-12T22:53:41.738Z,11.00
2023-01-12T22:56:10.463Z,11.00
2023-01-12T22:58:37.235Z,11.10
2023-01-12T23:01:08.311Z,11.20
2023-01-12T23:03:36.431Z,11.20
2023-01-12T23:06:03.410Z,11.20
2023-01-12T23:08:30.738Z,11.30
2023-01-12T23:11:04.873Z,11.30
2023-01-12T23:13:31.568Z,11.40
2023-01-12T23:16:01.636Z,11.40
2023-01-12T23:18:29.451Z,11.50
2023-01-12T23:21:00.478Z,11.50
2023-01-12T23:23:27.333Z,11.60
2023-01-12T23:25:54.186Z,11.70
2023-01-12T23:28:21.002Z,11.70
2023-01-12T23:30:47.853Z,11.70
2023-01-12T23:33:14.691Z,11.70
2023-01-12T23:35:41.875Z,11.70
2023-01-12T23:38:12.456Z,11.70
2023-01-12T23:40:39.379Z,11.70
2023-01-12T23:43:06.205Z,11.70
2023-01-12T23:45:33.627Z,11.70
2023-01-12T23:48:00.342Z,11.80
2023-01-12T23:50:27.158Z,11.80
2023-01-12T23:52:53.872Z,11.70
2023-01-12T23:55:20.643Z,11.70
2023-01-12T23:57:47.727Z,11.70
